sensor_id;sensor_type;location;lat;lon;timestamp;pressure;altitude;pressure_sealevel;temperature;humidity
39435;BME280;66825;51.880;-0.518;2023-07-31T00:01:18;99818.47;;;21.27;49.90
39435;BME280;66825;51.880;-0.518;2023-07-31T00:03:45;99816.97;;;21.30;49.93
39435;BME280;66825;51.880;-0.518;2023-07-31T00:06:11;99760.06;;;20.89;49.73
39435;BME280;66825;51.880;-0.518;2023-07-31T00:08:36;99812.97;;;21.27;50.03
39435;BME280;66825;51.880;-0.518;2023-07-31T00:11:01;99816.50;;;21.27;50.02
39435;BME280;66825;51.880;-0.518;2023-07-31T00:13:27;99805.31;;;21.20;49.87
39435;BME280;66825;51.880;-0.518;2023-07-31T00:15:53;99803.94;;;21.26;49.84
39435;BME280;66825;51.880;-0.518;2023-07-31T00:18:18;99809.88;;;21.29;49.58
39435;BME280;66825;51.880;-0.518;2023-07-31T00:20:44;99788.31;;;21.27;50.03
39435;BME280;66825;51.880;-0.518;2023-07-31T00:23:09;99793.81;;;21.27;49.90
39435;BME280;66825;51.880;-0.518;2023-07-31T00:25:35;99789.81;;;21.24;50.02
39435;BME280;66825;51.880;-0.518;2023-07-31T00:28:00;99728.81;;;20.90;49.95
39435;BME280;66825;51.880;-0.518;2023-07-31T00:30:25;99738.28;;;20.93;49.93
39435;BME280;66825;51.880;-0.518;2023-07-31T00:32:52;99782.03;;;21.26;49.94
39435;BME280;66825;51.880;-0.518;2023-07-31T00:35:17;99772.78;;;21.19;49.79
39435;BME280;66825;51.880;-0.518;2023-07-31T00:37:43;99732.38;;;20.91;49.97
39435;BME280;66825;51.880;-0.518;2023-07-31T00:40:09;99777.25;;;21.23;49.83
39435;BME280;66825;51.880;-0.518;2023-07-31T00:42:34;99764.81;;;21.26;50.14
39435;BME280;66825;51.880;-0.518;2023-07-31T00:45:00;99758.53;;;21.25;49.85
39435;BME280;66825;51.880;-0.518;2023-07-31T00:47:25;99764.47;;;21.27;49.94
39435;BME280;66825;51.880;-0.518;2023-07-31T00:49:51;99753.06;;;21.25;50.05
39435;BME280;66825;51.880;-0.518;2023-07-31T00:52:18;99754.97;;;21.25;50.06
39435;BME280;66825;51.880;-0.518;2023-07-31T00:54:43;99743.00;;;21.17;49.98
39435;BME280;66825;51.880;-0.518;2023-07-31T00:57:09;99720.63;;;21.03;49.88
39435;BME280;66825;51.880;-0.518;2023-07-31T00:59:35;99745.97;;;21.24;50.09
39435;BME280;66825;51.880;-0.518;2023-07-31T01:02:00;99745.16;;;21.24;49.96
39435;BME280;66825;51.880;-0.518;2023-07-31T01:04:26;99736.16;;;21.23;50.00
39435;BME280;66825;51.880;-0.518;2023-07-31T01:07:11;99729.19;;;21.26;49.87
39435;BME280;66825;51.880;-0.518;2023-07-31T01:09:46;99727.59;;;21.25;49.98
39435;BME280;66825;51.880;-0.518;2023-07-31T01:12:15;99717.44;;;21.25;49.88
39435;BME280;66825;51.880;-0.518;2023-07-31T01:15:12;99697.47;;;21.13;50.20
39435;BME280;66825;51.880;-0.518;2023-07-31T01:17:39;99660.25;;;20.87;49.99
39435;BME280;66825;51.880;-0.518;2023-07-31T01:20:24;99713.91;;;21.25;49.87
39435;BME280;66825;51.880;-0.518;2023-07-31T01:23:13;99708.41;;;21.25;49.97
39435;BME280;66825;51.880;-0.518;2023-07-31T01:26:03;99702.16;;;21.24;49.93
39435;BME280;66825;51.880;-0.518;2023-07-31T01:31:10;99684.91;;;21.24;50.01
39435;BME280;66825;51.880;-0.518;2023-07-31T01:33:38;99695.06;;;21.23;50.00
39435;BME280;66825;51.880;-0.518;2023-07-31T01:36:04;99672.22;;;21.19;50.06
39435;BME280;66825;51.880;-0.518;2023-07-31T01:38:29;99671.22;;;21.24;49.95
39435;BME280;66825;51.880;-0.518;2023-07-31T01:40:55;99673.16;;;21.23;50.11
39435;BME280;66825;51.880;-0.518;2023-07-31T01:43:20;99658.00;;;21.14;50.12
39435;BME280;66825;51.880;-0.518;2023-07-31T01:45:46;99669.16;;;21.21;50.06
39435;BME280;66825;51.880;-0.518;2023-07-31T01:48:11;99675.09;;;21.23;50.03
39435;BME280;66825;51.880;-0.518;2023-07-31T01:50:37;99656.72;;;21.23;50.13
39435;BME280;66825;51.880;-0.518;2023-07-31T01:53:02;99656.16;;;21.18;50.16
39435;BME280;66825;51.880;-0.518;2023-07-31T01:55:27;99546.75;;;20.47;50.04
39435;BME280;66825;51.880;-0.518;2023-07-31T01:57:53;99651.25;;;21.23;49.96
39435;BME280;66825;51.880;-0.518;2023-07-31T02:00:18;99653.97;;;21.23;49.85
39435;BME280;66825;51.880;-0.518;2023-07-31T02:02:44;99648.84;;;21.22;50.09
39435;BME280;66825;51.880;-0.518;2023-07-31T02:05:09;99652.38;;;21.22;50.14
39435;BME280;66825;51.880;-0.518;2023-07-31T02:07:35;99653.53;;;21.21;50.05
39435;BME280;66825;51.880;-0.518;2023-07-31T02:10:00;99658.66;;;21.23;50.13
39435;BME280;66825;51.880;-0.518;2023-07-31T02:12:26;99649.66;;;21.22;50.18
39435;BME280;66825;51.880;-0.518;2023-07-31T02:14:51;99653.16;;;21.23;50.07
39435;BME280;66825;51.880;-0.518;2023-07-31T02:17:17;99522.47;;;20.45;50.10
39435;BME280;66825;51.880;-0.518;2023-07-31T02:19:42;99649.66;;;21.22;50.29
39435;BME280;66825;51.880;-0.518;2023-07-31T02:22:07;99645.31;;;21.21;50.15
39435;BME280;66825;51.880;-0.518;2023-07-31T02:24:33;99634.81;;;21.23;50.15
39435;BME280;66825;51.880;-0.518;2023-07-31T02:26:58;99639.47;;;21.23;50.13
39435;BME280;66825;51.880;-0.518;2023-07-31T02:29:24;99630.00;;;21.20;50.18
39435;BME280;66825;51.880;-0.518;2023-07-31T02:31:49;99629.69;;;21.22;50.09
39435;BME280;66825;51.880;-0.518;2023-07-31T02:34:15;99619.75;;;21.17;50.22
39435;BME280;66825;51.880;-0.518;2023-07-31T02:36:40;99611.28;;;21.22;50.30
39435;BME280;66825;51.880;-0.518;2023-07-31T02:39:05;99609.59;;;21.18;50.15
39435;BME280;66825;51.880;-0.518;2023-07-31T02:41:31;99596.13;;;21.13;50.13
39435;BME280;66825;51.880;-0.518;2023-07-31T02:43:56;99609.69;;;21.21;50.25
39435;BME280;66825;51.880;-0.518;2023-07-31T02:46:22;99618.72;;;21.22;50.27
39435;BME280;66825;51.880;-0.518;2023-07-31T02:48:50;99614.03;;;21.22;50.13
39435;BME280;66825;51.880;-0.518;2023-07-31T02:51:16;99619.50;;;21.22;50.22
39435;BME280;66825;51.880;-0.518;2023-07-31T02:53:42;99607.78;;;21.22;50.22
39435;BME280;66825;51.880;-0.518;2023-07-31T02:56:07;99595.44;;;21.16;50.41
39435;BME280;66825;51.880;-0.518;2023-07-31T02:58:33;99607.31;;;21.20;50.19
39435;BME280;66825;51.880;-0.518;2023-07-31T03:00:59;99598.75;;;21.21;50.33
39435;BME280;66825;51.880;-0.518;2023-07-31T03:03:24;99598.75;;;21.21;50.24
39435;BME280;66825;51.880;-0.518;2023-07-31T03:05:50;99595.22;;;21.21;50.26
39435;BME280;66825;51.880;-0.518;2023-07-31T03:08:15;99595.22;;;21.21;50.34
39435;BME280;66825;51.880;-0.518;2023-07-31T03:10:41;99594.06;;;21.22;50.15
39435;BME280;66825;51.880;-0.518;2023-07-31T03:13:07;99594.41;;;21.20;50.32
39435;BME280;66825;51.880;-0.518;2023-07-31T03:15:33;99591.34;;;21.22;50.35
39435;BME280;66825;51.880;-0.518;2023-07-31T03:17:58;99577.44;;;21.15;50.36
39435;BME280;66825;51.880;-0.518;2023-07-31T03:20:24;99579.91;;;21.20;50.37
39435;BME280;66825;51.880;-0.518;2023-07-31T03:22:49;99581.06;;;21.19;50.47
39435;BME280;66825;51.880;-0.518;2023-07-31T03:25:15;99585.75;;;21.18;50.36
39435;BME280;66825;51.880;-0.518;2023-07-31T03:27:40;99579.47;;;21.18;50.40
39435;BME280;66825;51.880;-0.518;2023-07-31T03:30:06;99588.59;;;21.22;50.43
39435;BME280;66825;51.880;-0.518;2023-07-31T03:32:32;99587.78;;;21.21;50.49
39435;BME280;66825;51.880;-0.518;2023-07-31T03:34:58;99573.88;;;21.14;50.38
39435;BME280;66825;51.880;-0.518;2023-07-31T03:37:23;99593.25;;;21.21;50.61
39435;BME280;66825;51.880;-0.518;2023-07-31T03:39:48;99591.66;;;21.20;50.56
39435;BME280;66825;51.880;-0.518;2023-07-31T03:42:14;99584.94;;;21.18;50.43
39435;BME280;66825;51.880;-0.518;2023-07-31T03:44:40;99583.44;;;21.20;50.59
39435;BME280;66825;51.880;-0.518;2023-07-31T03:47:05;99589.72;;;21.21;50.37
39435;BME280;66825;51.880;-0.518;2023-07-31T03:49:31;99578.66;;;21.17;50.48
39435;BME280;66825;51.880;-0.518;2023-07-31T03:51:56;99536.28;;;20.86;50.62
39435;BME280;66825;51.880;-0.518;2023-07-31T03:54:22;99582.66;;;21.20;50.73
39435;BME280;66825;51.880;-0.518;2023-07-31T03:56:47;99582.66;;;21.20;50.59
39435;BME280;66825;51.880;-0.518;2023-07-31T03:59:13;99574.09;;;21.21;50.69
39435;BME280;66825;51.880;-0.518;2023-07-31T04:01:38;99563.50;;;21.20;50.56
39435;BME280;66825;51.880;-0.518;2023-07-31T04:04:04;99579.91;;;21.20;50.61
39435;BME280;66825;51.880;-0.518;2023-07-31T04:06:30;99577.97;;;21.20;50.55
39435;BME280;66825;51.880;-0.518;2023-07-31T04:08:56;99572.50;;;21.20;50.84
39435;BME280;66825;51.880;-0.518;2023-07-31T04:11:21;99574.44;;;21.20;50.77
39435;BME280;66825;51.880;-0.518;2023-07-31T04:13:47;99545.13;;;21.08;50.62
39435;BME280;66825;51.880;-0.518;2023-07-31T04:16:13;99564.28;;;21.20;50.72
39435;BME280;66825;51.880;-0.518;2023-07-31T04:18:38;99505.94;;;20.79;50.74
39435;BME280;66825;51.880;-0.518;2023-07-31T04:21:04;99567.00;;;21.20;50.60
39435;BME280;66825;51.880;-0.518;2023-07-31T04:23:29;99561.00;;;21.15;50.68
39435;BME280;66825;51.880;-0.518;2023-07-31T04:25:55;99574.44;;;21.20;50.71
39435;BME280;66825;51.880;-0.518;2023-07-31T04:28:21;99566.22;;;21.20;50.82
39435;BME280;66825;51.880;-0.518;2023-07-31T04:30:47;99517.47;;;20.85;50.74
39435;BME280;66825;51.880;-0.518;2023-07-31T04:33:12;99568.84;;;21.16;50.73
39435;BME280;66825;51.880;-0.518;2023-07-31T04:35:37;99560.75;;;21.20;50.79
39435;BME280;66825;51.880;-0.518;2023-07-31T04:38:03;99555.94;;;21.17;50.72
39435;BME280;66825;51.880;-0.518;2023-07-31T04:40:28;99575.22;;;21.20;50.66
39435;BME280;66825;51.880;-0.518;2023-07-31T04:42:54;99574.44;;;21.20;50.80
39435;BME280;66825;51.880;-0.518;2023-07-31T04:45:19;99585.41;;;21.20;50.73
39435;BME280;66825;51.880;-0.518;2023-07-31T04:47:45;99584.59;;;21.19;50.64
39435;BME280;66825;51.880;-0.518;2023-07-31T04:50:10;99587.00;;;21.21;50.90
39435;BME280;66825;51.880;-0.518;2023-07-31T04:52:36;99569.44;;;21.09;50.90
39435;BME280;66825;51.880;-0.518;2023-07-31T04:55:01;99593.97;;;21.18;50.96
39435;BME280;66825;51.880;-0.518;2023-07-31T04:57:27;99578.09;;;21.12;50.81
39435;BME280;66825;51.880;-0.518;2023-07-31T04:59:52;99532.41;;;20.75;50.87
39435;BME280;66825;51.880;-0.518;2023-07-31T05:02:18;99592.81;;;21.19;50.99
39435;BME280;66825;51.880;-0.518;2023-07-31T05:04:43;99598.28;;;21.19;50.96
39435;BME280;66825;51.880;-0.518;2023-07-31T05:07:09;99593.63;;;21.20;50.82
39435;BME280;66825;51.880;-0.518;2023-07-31T05:09:34;99601.00;;;21.19;50.79
39435;BME280;66825;51.880;-0.518;2023-07-31T05:12:00;99592.38;;;21.17;50.98
39435;BME280;66825;51.880;-0.518;2023-07-31T05:14:26;99561.34;;;21.01;51.08
39435;BME280;66825;51.880;-0.518;2023-07-31T05:16:51;99589.28;;;21.19;51.08
39435;BME280;66825;51.880;-0.518;2023-07-31T05:19:17;99583.00;;;21.18;51.14
39435;BME280;66825;51.880;-0.518;2023-07-31T05:21:43;99584.16;;;21.17;51.17
39435;BME280;66825;51.880;-0.518;2023-07-31T05:24:10;99578.31;;;21.19;51.06
39435;BME280;66825;51.880;-0.518;2023-07-31T05:26:35;99578.31;;;21.19;51.12
39435;BME280;66825;51.880;-0.518;2023-07-31T05:29:00;99486.09;;;20.57;51.20
39435;BME280;66825;51.880;-0.518;2023-07-31T05:31:26;99579.09;;;21.19;51.40
39435;BME280;66825;51.880;-0.518;2023-07-31T05:33:51;99580.28;;;21.18;51.17
39435;BME280;66825;51.880;-0.518;2023-07-31T05:36:17;99578.31;;;21.19;51.12
39435;BME280;66825;51.880;-0.518;2023-07-31T05:38:43;99581.06;;;21.19;51.02
39435;BME280;66825;51.880;-0.518;2023-07-31T05:41:11;99567.25;;;21.15;51.10
39435;BME280;66825;51.880;-0.518;2023-07-31T05:43:37;99572.06;;;21.18;51.27
39435;BME280;66825;51.880;-0.518;2023-07-31T05:46:02;99576.72;;;21.18;51.16
39435;BME280;66825;51.880;-0.518;2023-07-31T05:48:28;99577.53;;;21.18;51.23
39435;BME280;66825;51.880;-0.518;2023-07-31T05:50:53;99577.53;;;21.18;51.23
39435;BME280;66825;51.880;-0.518;2023-07-31T05:53:19;99575.59;;;21.19;51.11
39435;BME280;66825;51.880;-0.518;2023-07-31T05:55:44;99528.53;;;20.88;51.12
39435;BME280;66825;51.880;-0.518;2023-07-31T05:58:10;99572.06;;;21.18;51.30
39435;BME280;66825;51.880;-0.518;2023-07-31T06:00:35;99567.25;;;21.15;51.13
39435;BME280;66825;51.880;-0.518;2023-07-31T06:03:01;99494.53;;;20.65;51.37
39435;BME280;66825;51.880;-0.518;2023-07-31T06:05:26;99569.06;;;21.11;51.29
39435;BME280;66825;51.880;-0.518;2023-07-31T06:07:53;99577.53;;;21.18;51.27
39435;BME280;66825;51.880;-0.518;2023-07-31T06:10:19;99572.06;;;21.18;51.28
39435;BME280;66825;51.880;-0.518;2023-07-31T06:12:44;99527.72;;;20.88;51.23
39435;BME280;66825;51.880;-0.518;2023-07-31T06:15:10;99581.41;;;21.17;51.31
39435;BME280;66825;51.880;-0.518;2023-07-31T06:17:36;99575.94;;;21.17;51.08
39435;BME280;66825;51.880;-0.518;2023-07-31T06:20:02;99582.19;;;21.18;51.08
39435;BME280;66825;51.880;-0.518;2023-07-31T06:22:30;99579.47;;;21.18;51.45
39435;BME280;66825;51.880;-0.518;2023-07-31T06:24:56;99565.56;;;21.10;51.34
39435;BME280;66825;51.880;-0.518;2023-07-31T06:27:21;99573.19;;;21.17;51.44
39435;BME280;66825;51.880;-0.518;2023-07-31T06:29:47;99571.25;;;21.18;51.55
39435;BME280;66825;51.880;-0.518;2023-07-31T06:32:13;99564.97;;;21.17;51.30
39435;BME280;66825;51.880;-0.518;2023-07-31T06:34:39;99548.34;;;21.10;51.65
39435;BME280;66825;51.880;-0.518;2023-07-31T06:37:04;99568.84;;;21.16;51.45
39435;BME280;66825;51.880;-0.518;2023-07-31T06:39:30;99571.25;;;21.18;51.37
39435;BME280;66825;51.880;-0.518;2023-07-31T06:41:55;99505.72;;;20.84;51.45
39435;BME280;66825;51.880;-0.518;2023-07-31T06:44:21;99551.28;;;21.17;51.37
39435;BME280;66825;51.880;-0.518;2023-07-31T06:46:46;99530.31;;;21.09;51.46
39435;BME280;66825;51.880;-0.518;2023-07-31T06:49:12;99547.63;;;21.13;51.71
39435;BME280;66825;51.880;-0.518;2023-07-31T06:51:37;99547.63;;;21.13;51.48
39435;BME280;66825;51.880;-0.518;2023-07-31T06:54:03;99552.78;;;21.15;51.50
39435;BME280;66825;51.880;-0.518;2023-07-31T06:56:29;99492.72;;;20.81;51.39
39435;BME280;66825;51.880;-0.518;2023-07-31T06:58:55;99551.59;;;21.16;51.52
39435;BME280;66825;51.880;-0.518;2023-07-31T07:01:21;99541.47;;;21.16;51.56
39435;BME280;66825;51.880;-0.518;2023-07-31T07:03:47;99498.31;;;20.85;51.34
39435;BME280;66825;51.880;-0.518;2023-07-31T07:06:16;99545.00;;;21.17;51.48
39435;BME280;66825;51.880;-0.518;2023-07-31T07:08:42;99526.66;;;21.05;51.50
39435;BME280;66825;51.880;-0.518;2023-07-31T07:11:07;99541.47;;;21.16;51.51
39435;BME280;66825;51.880;-0.518;2023-07-31T07:13:33;99543.06;;;21.17;51.50
39435;BME280;66825;51.880;-0.518;2023-07-31T07:15:59;99545.34;;;21.15;51.44
39435;BME280;66825;51.880;-0.518;2023-07-31T07:18:24;99541.81;;;21.15;51.38
39435;BME280;66825;51.880;-0.518;2023-07-31T07:20:51;99541.47;;;21.16;51.56
39435;BME280;66825;51.880;-0.518;2023-07-31T07:23:17;99527.88;;;21.07;51.44
39435;BME280;66825;51.880;-0.518;2023-07-31T07:25:43;99549.69;;;21.16;51.39
39435;BME280;66825;51.880;-0.518;2023-07-31T07:28:09;99556.31;;;21.15;51.40
39435;BME280;66825;51.880;-0.518;2023-07-31T07:30:35;99548.44;;;21.14;51.48
39435;BME280;66825;51.880;-0.518;2023-07-31T07:33:00;99562.66;;;21.19;51.44
39435;BME280;66825;51.880;-0.518;2023-07-31T07:35:26;99554.13;;;21.21;51.54
39435;BME280;66825;51.880;-0.518;2023-07-31T07:37:51;99547.50;;;21.22;52.09
39435;BME280;66825;51.880;-0.518;2023-07-31T07:40:17;99541.69;;;21.23;52.46
39435;BME280;66825;51.880;-0.518;2023-07-31T07:42:42;99537.78;;;21.24;52.67
39435;BME280;66825;51.880;-0.518;2023-07-31T07:45:08;99537.78;;;21.24;53.13
39435;BME280;66825;51.880;-0.518;2023-07-31T07:47:34;99533.91;;;21.25;53.12
39435;BME280;66825;51.880;-0.518;2023-07-31T07:49:59;99535.50;;;21.26;53.13
39435;BME280;66825;51.880;-0.518;2023-07-31T07:52:25;99504.72;;;21.17;53.08
39435;BME280;66825;51.880;-0.518;2023-07-31T07:54:50;99496.94;;;21.19;53.55
39435;BME280;66825;51.880;-0.518;2023-07-31T07:57:16;99511.66;;;21.27;53.48
39435;BME280;66825;51.880;-0.518;2023-07-31T07:59:41;99504.81;;;21.21;53.59
39435;BME280;66825;51.880;-0.518;2023-07-31T08:02:07;99525.44;;;21.31;53.44
39435;BME280;66825;51.880;-0.518;2023-07-31T08:04:33;99519.75;;;21.23;53.64
39435;BME280;66825;51.880;-0.518;2023-07-31T08:06:58;99526.22;;;21.31;53.82
39435;BME280;66825;51.880;-0.518;2023-07-31T08:09:24;99517.47;;;21.25;53.89
39435;BME280;66825;51.880;-0.518;2023-07-31T08:11:49;99523.16;;;21.33;54.61
39435;BME280;66825;51.880;-0.518;2023-07-31T08:14:14;99525.19;;;21.36;54.40
39435;BME280;66825;51.880;-0.518;2023-07-31T08:16:40;99518.56;;;21.37;54.67
39435;BME280;66825;51.880;-0.518;2023-07-31T08:19:05;99503.72;;;21.38;54.59
39435;BME280;66825;51.880;-0.518;2023-07-31T08:21:31;99508.06;;;21.39;54.85
39435;BME280;66825;51.880;-0.518;2023-07-31T08:23:57;99512.72;;;21.38;54.77
39435;BME280;66825;51.880;-0.518;2023-07-31T08:26:22;99518.78;;;21.44;54.61
39435;BME280;66825;51.880;-0.518;2023-07-31T08:28:48;99502.22;;;21.40;54.63
39435;BME280;66825;51.880;-0.518;2023-07-31T08:31:13;99507.91;;;21.48;54.69
39435;BME280;66825;51.880;-0.518;2023-07-31T08:33:39;99498.66;;;21.52;54.88
39435;BME280;66825;51.880;-0.518;2023-07-31T08:36:05;99503.75;;;21.54;54.61
39435;BME280;66825;51.880;-0.518;2023-07-31T08:38:31;99499.88;;;21.55;54.67
39435;BME280;66825;51.880;-0.518;2023-07-31T08:40:57;99496.47;;;21.58;54.50
39435;BME280;66825;51.880;-0.518;2023-07-31T08:43:25;99507.53;;;21.62;54.54
39435;BME280;66825;51.880;-0.518;2023-07-31T08:45:51;99436.09;;;21.26;54.43
39435;BME280;66825;51.880;-0.518;2023-07-31T08:48:17;99499.06;;;21.67;54.77
39435;BME280;66825;51.880;-0.518;2023-07-31T08:50:44;99496.78;;;21.69;54.48
39435;BME280;66825;51.880;-0.518;2023-07-31T08:53:10;99503.50;;;21.71;54.51
39435;BME280;66825;51.880;-0.518;2023-07-31T08:55:37;99517.28;;;21.75;54.67
39435;BME280;66825;51.880;-0.518;2023-07-31T08:58:04;99513.03;;;21.78;54.92
39435;BME280;66825;51.880;-0.518;2023-07-31T09:00:31;99504.81;;;21.78;54.46
39435;BME280;66825;51.880;-0.518;2023-07-31T09:03:03;99508.81;;;21.80;54.58
39435;BME280;66825;51.880;-0.518;2023-07-31T09:05:31;99498.47;;;21.89;54.44
39435;BME280;66825;51.880;-0.518;2023-07-31T09:07:57;99495.47;;;21.95;54.32
39435;BME280;66825;51.880;-0.518;2023-07-31T09:10:23;99490.88;;;21.99;54.30
39435;BME280;66825;51.880;-0.518;2023-07-31T09:12:51;99468.03;;;21.95;54.33
39435;BME280;66825;51.880;-0.518;2023-07-31T09:15:17;99475.03;;;22.08;54.25
39435;BME280;66825;51.880;-0.518;2023-07-31T09:17:43;99468.84;;;22.11;53.94
39435;BME280;66825;51.880;-0.518;2023-07-31T09:20:16;99421.53;;;21.82;53.61
39435;BME280;66825;51.880;-0.518;2023-07-31T09:22:43;99454.69;;;22.09;53.92
39435;BME280;66825;51.880;-0.518;2023-07-31T09:25:23;99457.31;;;22.21;53.84
39435;BME280;66825;51.880;-0.518;2023-07-31T09:28:04;99461.41;;;22.28;53.73
39435;BME280;66825;51.880;-0.518;2023-07-31T09:30:31;99453.25;;;22.31;53.39
39435;BME280;66825;51.880;-0.518;2023-07-31T09:33:04;99454.56;;;22.37;53.50
39435;BME280;66825;51.880;-0.518;2023-07-31T09:35:33;99448.63;;;22.35;53.18
39435;BME280;66825;51.880;-0.518;2023-07-31T09:38:07;99443.34;;;22.43;53.09
39435;BME280;66825;51.880;-0.518;2023-07-31T09:40:35;99444.94;;;22.44;52.77
39435;BME280;66825;51.880;-0.518;2023-07-31T09:43:06;99441.38;;;22.43;53.02
39435;BME280;66825;51.880;-0.518;2023-07-31T09:45:38;99444.22;;;22.47;53.23
39435;BME280;66825;51.880;-0.518;2023-07-31T09:48:10;99451.72;;;22.50;53.25
39435;BME280;66825;51.880;-0.518;2023-07-31T09:50:38;99458.03;;;22.50;52.86
39435;BME280;66825;51.880;-0.518;2023-07-31T09:53:05;99476.22;;;22.59;52.86
39435;BME280;66825;51.880;-0.518;2023-07-31T09:55:31;99482.59;;;22.63;52.50
39435;BME280;66825;51.880;-0.518;2023-07-31T09:58:04;99462.50;;;22.59;52.14
39435;BME280;66825;51.880;-0.518;2023-07-31T10:00:30;99471.34;;;22.68;52.00
39435;BME280;66825;51.880;-0.518;2023-07-31T10:02:58;99467.44;;;22.69;52.21
39435;BME280;66825;51.880;-0.518;2023-07-31T10:05:31;99474.81;;;22.65;51.70
39435;BME280;66825;51.880;-0.518;2023-07-31T10:07:59;99456.84;;;22.67;51.79
39435;BME280;66825;51.880;-0.518;2023-07-31T10:10:25;99461.97;;;22.69;51.54
39435;BME280;66825;51.880;-0.518;2023-07-31T10:12:52;99449.47;;;22.72;51.25
39435;BME280;66825;51.880;-0.518;2023-07-31T10:15:18;99451.13;;;22.76;51.42
39435;BME280;66825;51.880;-0.518;2023-07-31T10:17:46;99448.00;;;22.78;51.49
39435;BME280;66825;51.880;-0.518;2023-07-31T10:20:12;99439.44;;;22.79;51.34
39435;BME280;66825;51.880;-0.518;2023-07-31T10:22:39;99400.41;;;22.50;51.61
39435;BME280;66825;51.880;-0.518;2023-07-31T10:25:07;99445.41;;;22.85;51.56
39435;BME280;66825;51.880;-0.518;2023-07-31T10:27:35;99450.97;;;22.89;51.64
39435;BME280;66825;51.880;-0.518;2023-07-31T10:30:03;99448.97;;;22.86;51.52
39435;BME280;66825;51.880;-0.518;2023-07-31T10:32:29;99394.63;;;22.56;51.49
39435;BME280;66825;51.880;-0.518;2023-07-31T10:34:55;99449.53;;;22.95;51.44
39435;BME280;66825;51.880;-0.518;2023-07-31T10:37:38;99451.13;;;22.96;51.22
39435;BME280;66825;51.880;-0.518;2023-07-31T10:40:06;99451.94;;;22.96;51.19
39435;BME280;66825;51.880;-0.518;2023-07-31T10:42:37;99477.81;;;22.95;51.03
39435;BME280;66825;51.880;-0.518;2023-07-31T10:45:07;99486.84;;;22.96;51.13
39435;BME280;66825;51.880;-0.518;2023-07-31T10:47:45;99490.41;;;22.96;51.06
39435;BME280;66825;51.880;-0.518;2023-07-31T10:50:13;99487.56;;;22.93;51.03
39435;BME280;66825;51.880;-0.518;2023-07-31T10:52:38;99504.13;;;22.96;50.77
39435;BME280;66825;51.880;-0.518;2023-07-31T10:57:57;99479.13;;;23.02;50.70
39435;BME280;66825;51.880;-0.518;2023-07-31T11:03:05;99475.72;;;23.08;50.75
39435;BME280;66825;51.880;-0.518;2023-07-31T11:08:26;99443.69;;;23.16;50.35
39435;BME280;66825;51.880;-0.518;2023-07-31T11:13:34;99464.63;;;23.21;50.05
39435;BME280;66825;51.880;-0.518;2023-07-31T11:16:04;99472.50;;;23.22;49.91
39435;BME280;66825;51.880;-0.518;2023-07-31T11:18:30;99477.19;;;23.22;49.84
39435;BME280;66825;51.880;-0.518;2023-07-31T11:20:55;99489.34;;;23.21;49.62
39435;BME280;66825;51.880;-0.518;2023-07-31T11:23:21;99467.38;;;23.21;49.40
39435;BME280;66825;51.880;-0.518;2023-07-31T11:25:47;99469.56;;;23.15;49.38
39435;BME280;66825;51.880;-0.518;2023-07-31T11:28:14;99471.63;;;23.18;48.80
39435;BME280;66825;51.880;-0.518;2023-07-31T11:30:41;99477.63;;;23.24;49.06
39435;BME280;66825;51.880;-0.518;2023-07-31T11:33:08;99480.31;;;23.20;48.66
39435;BME280;66825;51.880;-0.518;2023-07-31T11:35:36;99477.63;;;23.24;48.69
39435;BME280;66825;51.880;-0.518;2023-07-31T11:38:07;99478.78;;;23.23;48.39
39435;BME280;66825;51.880;-0.518;2023-07-31T11:40:41;99478.44;;;23.24;49.15
39435;BME280;66825;51.880;-0.518;2023-07-31T11:43:07;99456.38;;;23.21;48.55
39435;BME280;66825;51.880;-0.518;2023-07-31T11:45:33;99472.28;;;23.31;48.67
39435;BME280;66825;51.880;-0.518;2023-07-31T11:48:00;99484.50;;;23.34;48.56
39435;BME280;66825;51.880;-0.518;2023-07-31T11:50:26;99461.88;;;23.21;48.66
39435;BME280;66825;51.880;-0.518;2023-07-31T11:53:00;99469.25;;;23.36;48.80
39435;BME280;66825;51.880;-0.518;2023-07-31T11:55:26;99464.44;;;23.33;48.64
39435;BME280;66825;51.880;-0.518;2023-07-31T11:57:54;99481.09;;;23.40;48.53
39435;BME280;66825;51.880;-0.518;2023-07-31T12:00:21;99478.06;;;23.45;48.58
39435;BME280;66825;51.880;-0.518;2023-07-31T12:02:46;99466.56;;;23.40;48.49
39435;BME280;66825;51.880;-0.518;2023-07-31T12:05:13;99482.81;;;23.48;48.36
39435;BME280;66825;51.880;-0.518;2023-07-31T12:07:50;99465.94;;;23.50;48.35
39435;BME280;66825;51.880;-0.518;2023-07-31T12:10:30;99448.28;;;23.51;48.41
39435;BME280;66825;51.880;-0.518;2023-07-31T12:13:07;99435.72;;;23.50;48.34
39435;BME280;66825;51.880;-0.518;2023-07-31T12:15:43;99438.19;;;23.55;48.49
39435;BME280;66825;51.880;-0.518;2023-07-31T12:18:16;99439.41;;;23.58;48.24
39435;BME280;66825;51.880;-0.518;2023-07-31T12:20:58;99411.16;;;23.38;48.58
39435;BME280;66825;51.880;-0.518;2023-07-31T12:23:28;99441.84;;;23.63;48.37
39435;BME280;66825;51.880;-0.518;2023-07-31T12:26:05;99454.44;;;23.64;48.46
39435;BME280;66825;51.880;-0.518;2023-07-31T12:28:35;99469.41;;;23.67;48.34
39435;BME280;66825;51.880;-0.518;2023-07-31T12:31:01;99455.97;;;23.61;48.39
39435;BME280;66825;51.880;-0.518;2023-07-31T12:33:35;99450.97;;;23.67;48.33
39435;BME280;66825;51.880;-0.518;2023-07-31T12:36:13;99458.91;;;23.72;48.38
39435;BME280;66825;51.880;-0.518;2023-07-31T12:38:40;99447.78;;;23.65;48.44
39435;BME280;66825;51.880;-0.518;2023-07-31T12:41:06;99458.53;;;23.74;48.19
39435;BME280;66825;51.880;-0.518;2023-07-31T12:43:35;99396.19;;;23.35;48.33
39435;BME280;66825;51.880;-0.518;2023-07-31T12:46:00;99441.66;;;23.75;48.23
39435;BME280;66825;51.880;-0.518;2023-07-31T12:48:26;99452.81;;;23.83;48.42
39435;BME280;66825;51.880;-0.518;2023-07-31T12:50:51;99452.41;;;23.84;48.47
39435;BME280;66825;51.880;-0.518;2023-07-31T12:53:17;99429.94;;;23.78;48.09
39435;BME280;66825;51.880;-0.518;2023-07-31T12:55:42;99424.16;;;23.87;48.25
39435;BME280;66825;51.880;-0.518;2023-07-31T12:58:08;99408.03;;;23.86;47.86
39435;BME280;66825;51.880;-0.518;2023-07-31T13:00:33;99363.53;;;23.80;47.91
39435;BME280;66825;51.880;-0.518;2023-07-31T13:03:00;99364.84;;;23.86;47.84